createdAt,value
2019-02-18T00:01:44.864Z,3.20
2019-02-18T00:04:16.397Z,3.20
2019-02-18T00:06:50.850Z,3.30
2019-02-18T00:09:22.712Z,3.40
2019-02-18T00:11:55.022Z,3.40
2019-02-18T00:14:30.471Z,3.40
2019-02-18T00:17:06.655Z,3.40
2019-02-18T00:19:39.165Z,3.20
2019-02-18T00:22:10.506Z,3.10
2019-02-18T00:24:44.049Z,3.40
2019-02-18T00:27:14.552Z,3.20
2019-02-18T00:29:45.042Z,3.20
2019-02-18T00:32:16.651Z,3.40
2019-02-18T00:34:49.165Z,3.20
2019-02-18T00:37:24.757Z,3.20
2019-02-18T00:39:55.959Z,3.10
2019-02-18T00:42:27.897Z,3.30
2019-02-18T00:45:00.446Z,3.10
2019-02-18T00:47:33.823Z,2.80
2019-02-18T00:50:05.063Z,2.90
2019-02-18T00:52:36.401Z,2.70
2019-02-18T00:55:08.386Z,3.00
2019-02-18T00:57:41.177Z,2.80
2019-02-18T01:00:14.281Z,2.60
2019-02-18T01:02:46.468Z,2.60
2019-02-18T01:05:18.314Z,2.50
2019-02-18T01:07:51.339Z,2.30
2019-02-18T01:10:23.858Z,2.10
2019-02-18T01:12:55.648Z,2.30
2019-02-18T01:15:26.131Z,2.00
2019-02-18T01:17:58.377Z,2.40
2019-02-18T01:20:29.255Z,2.10
2019-02-18T01:22:59.667Z,2.30
2019-02-18T01:25:30.530Z,2.30
2019-02-18T01:28:03.025Z,2.20
2019-02-18T01:30:38.877Z,2.30
2019-02-18T01:33:13.243Z,2.30
2019-02-18T01:35:45.654Z,2.10
2019-02-18T01:38:17.093Z,1.90
2019-02-18T01:40:49.635Z,1.90
2019-02-18T01:43:19.979Z,2.10
2019-02-18T01:45:52.907Z,2.00
2019-02-18T01:48:23.791Z,2.10
2019-02-18T01:50:54.136Z,1.90
2019-02-18T01:53:26.950Z,1.80
2019-02-18T01:55:57.683Z,1.60
2019-02-18T01:58:29.901Z,1.50
2019-02-18T02:01:03.152Z,1.80
2019-02-18T02:03:33.546Z,2.00
2019-02-18T02:06:07.126Z,2.10
2019-02-18T02:08:40.366Z,2.10
2019-02-18T02:11:12.330Z,1.90
2019-02-18T02:13:42.821Z,2.30
2019-02-18T02:16:14.032Z,2.30
2019-02-18T02:18:45.744Z,2.40
2019-02-18T02:21:18.699Z,2.30
2019-02-18T02:23:49.327Z,2.30
2019-02-18T02:26:19.703Z,2.10
2019-02-18T02:28:53.508Z,2.30
2019-02-18T02:31:25.345Z,2.20
2019-02-18T02:33:56.877Z,2.20
2019-02-18T02:36:29.692Z,2.30
2019-02-18T02:39:02.289Z,2.50
2019-02-18T02:41:35.377Z,2.20
2019-02-18T02:44:05.773Z,2.00
2019-02-18T02:46:36.539Z,2.20
2019-02-18T02:49:08.649Z,2.30
2019-02-18T02:51:39.438Z,2.20
2019-02-18T02:54:11.617Z,2.30
2019-02-18T02:56:44.081Z,2.30
2019-02-18T02:59:14.943Z,2.00
2019-02-18T03:01:45.468Z,2.20
2019-02-18T03:04:16.175Z,2.20
2019-02-18T03:06:47.682Z,2.00
2019-02-18T03:09:18.043Z,2.10
2019-02-18T03:11:48.798Z,2.00
2019-02-18T03:14:20.264Z,1.80
2019-02-18T03:16:51.371Z,2.00
2019-02-18T03:19:22.124Z,1.90
2019-02-18T03:21:53.030Z,1.90
2019-02-18T03:24:25.548Z,1.80
2019-02-18T03:26:57.058Z,1.80
2019-02-18T03:30:14.219Z,1.70
2019-02-18T03:32:54.576Z,1.70
2019-02-18T03:35:27.045Z,1.70
2019-02-18T03:38:00.034Z,1.70
2019-02-18T03:40:31.081Z,1.70
2019-02-18T03:43:04.101Z,1.50
2019-02-18T03:45:34.709Z,2.00
2019-02-18T03:48:07.179Z,1.80
2019-02-18T03:50:39.592Z,2.00
2019-02-18T03:53:11.459Z,2.20
2019-02-18T03:55:43.499Z,2.20
2019-02-18T03:58:17.086Z,2.20
2019-02-18T04:00:47.806Z,2.20
2019-02-18T04:03:19.990Z,2.20
2019-02-18T04:05:50.359Z,2.20
2019-02-18T04:08:22.563Z,2.00
2019-02-18T04:10:52.950Z,2.20
2019-02-18T04:13:26.850Z,2.10
2019-02-18T04:15:57.536Z,2.30
2019-02-18T04:18:30.135Z,2.10
2019-02-18T04:21:00.488Z,2.00
2019-02-18T04:23:32.308Z,2.30
2019-02-18T04:26:04.133Z,1.80
2019-02-18T04:28:34.905Z,2.00
2019-02-18T04:31:06.770Z,2.00
2019-02-18T04:33:37.233Z,2.00
2019-02-18T04:36:09.056Z,2.10
2019-02-18T04:38:41.655Z,1.70
2019-02-18T04:41:15.232Z,2.00
2019-02-18T04:43:47.463Z,1.80
2019-02-18T04:46:17.849Z,1.70
2019-02-18T04:48:52.029Z,2.10
2019-02-18T04:51:26.418Z,1.50
2019-02-18T04:53:56.991Z,1.50
2019-02-18T04:56:29.218Z,1.50
2019-02-18T04:58:59.738Z,1.30
2019-02-18T05:01:30.446Z,1.20
2019-02-18T05:04:01.280Z,1.50
2019-02-18T05:06:33.471Z,1.20
2019-02-18T05:09:05.990Z,1.20
2019-02-18T05:11:36.483Z,1.00
2019-02-18T05:14:06.930Z,1.00
2019-02-18T05:16:37.737Z,1.40
2019-02-18T05:19:11.523Z,1.20
2019-02-18T05:21:44.483Z,0.80
2019-02-18T05:24:14.857Z,1.00
2019-02-18T05:26:45.387Z,1.00
2019-02-18T05:29:16.994Z,0.90
2019-02-18T05:31:47.864Z,0.90
2019-02-18T05:34:21.601Z,1.00
2019-02-18T05:36:52.768Z,0.80
2019-02-18T05:39:23.248Z,0.70
2019-02-18T05:41:55.348Z,0.70
2019-02-18T05:44:28.697Z,0.90
2019-02-18T05:46:59.173Z,0.70
2019-02-18T05:49:30.761Z,0.50
2019-02-18T05:52:01.194Z,0.50
2019-02-18T05:54:31.608Z,0.50
2019-02-18T05:57:06.849Z,0.50
2019-02-18T05:59:40.447Z,0.70
2019-02-18T06:02:12.106Z,0.40
2019-02-18T06:04:42.877Z,0.40
2019-02-18T06:07:14.728Z,0.50
2019-02-18T06:09:45.544Z,0.80
2019-02-18T06:12:16.215Z,0.50
2019-02-18T06:14:48.005Z,0.40
2019-02-18T06:17:18.351Z,0.50
2019-02-18T06:19:51.622Z,0.90
2019-02-18T06:22:23.546Z,0.90
2019-02-18T06:24:54.687Z,0.50
2019-02-18T06:27:28.533Z,0.50
2019-02-18T06:30:00.754Z,0.70
2019-02-18T06:32:33.795Z,0.70
2019-02-18T06:35:04.301Z,0.70
2019-02-18T06:37:34.997Z,0.80
2019-02-18T06:40:06.793Z,0.70
2019-02-18T06:42:37.724Z,1.00
2019-02-18T06:45:36.179Z,0.70
2019-02-18T06:48:32.995Z,0.90
2019-02-18T06:51:17.024Z,0.90
2019-02-18T06:53:50.709Z,1.10
2019-02-18T06:56:38.663Z,0.90
2019-02-18T06:59:20.147Z,1.10
2019-02-18T07:02:00.201Z,1.00
2019-02-18T07:04:43.626Z,0.90
2019-02-18T07:07:35.782Z,0.80
2019-02-18T07:10:25.444Z,1.30
2019-02-18T07:12:58.740Z,1.30
2019-02-18T07:15:30.525Z,1.70
2019-02-18T07:18:00.932Z,2.30
2019-02-18T07:20:31.668Z,3.10
2019-02-18T07:23:02.713Z,4.20
2019-02-18T07:25:34.484Z,4.90
2019-02-18T07:28:06.408Z,5.10
2019-02-18T07:30:37.642Z,5.90
2019-02-18T07:33:11.991Z,6.80
2019-02-18T07:35:42.747Z,7.40
2019-02-18T07:38:14.273Z,7.80
2019-02-18T07:40:44.686Z,7.80
2019-02-18T07:43:16.024Z,8.20
2019-02-18T07:45:47.789Z,9.20
2019-02-18T07:48:18.535Z,9.60
2019-02-18T07:50:48.931Z,9.80
2019-02-18T07:53:25.729Z,10.30
2019-02-18T07:55:57.302Z,11.20
2019-02-18T07:58:34.414Z,12.00
2019-02-18T08:01:08.578Z,12.50
2019-02-18T08:03:40.757Z,12.70
2019-02-18T08:06:13.342Z,12.40
2019-02-18T08:08:44.968Z,12.70
2019-02-18T08:11:17.057Z,13.10
2019-02-18T08:14:08.274Z,13.80
2019-02-18T08:16:40.281Z,14.00
2019-02-18T08:19:15.689Z,13.90
2019-02-18T08:21:47.639Z,13.90
2019-02-18T08:24:18.791Z,13.60
2019-02-18T08:26:51.627Z,13.30
2019-02-18T08:29:24.692Z,12.50
2019-02-18T08:31:56.797Z,11.70
2019-02-18T08:34:28.797Z,10.90
2019-02-18T08:37:00.817Z,10.60
2019-02-18T08:39:32.299Z,10.10
2019-02-18T08:42:03.000Z,9.80
2019-02-18T08:44:33.538Z,9.60
2019-02-18T08:47:04.823Z,9.20
2019-02-18T08:49:39.155Z,9.30
2019-02-18T08:52:10.661Z,9.60
2019-02-18T08:54:41.107Z,10.30
2019-02-18T08:57:13.620Z,11.20
2019-02-18T08:59:47.452Z,11.80
2019-02-18T09:02:20.373Z,12.10
2019-02-18T09:04:52.745Z,12.40
2019-02-18T09:07:27.254Z,13.00
2019-02-18T09:09:59.629Z,13.40
2019-02-18T09:12:31.169Z,14.00
2019-02-18T09:15:04.643Z,14.50
2019-02-18T09:17:37.062Z,14.80
2019-02-18T09:20:11.108Z,15.40
2019-02-18T09:23:00.245Z,16.20
2019-02-18T09:25:37.670Z,17.50
2019-02-18T09:28:08.529Z,18.60
2019-02-18T09:30:41.869Z,19.50
2019-02-18T09:33:14.099Z,20.40
2019-02-18T09:35:45.385Z,20.50
2019-02-18T09:38:25.098Z,20.10
2019-02-18T09:40:51.699Z,19.30
2019-02-18T09:43:24.084Z,18.50
2019-02-18T09:45:55.865Z,17.80
2019-02-18T09:48:30.991Z,17.50
2019-02-18T09:51:02.653Z,17.10
2019-02-18T09:53:37.859Z,17.80
2019-02-18T09:56:09.869Z,17.60
2019-02-18T09:58:41.216Z,18.20
2019-02-18T10:01:14.561Z,18.60
2019-02-18T10:03:47.732Z,18.60
2019-02-18T10:06:19.497Z,18.50
2019-02-18T10:08:51.958Z,18.60
2019-02-18T10:11:23.976Z,17.90
2019-02-18T10:13:55.019Z,18.70
2019-02-18T10:16:28.439Z,19.30
2019-02-18T10:19:01.103Z,19.20
2019-02-18T10:21:31.986Z,19.60
2019-02-18T10:24:03.994Z,18.40
2019-02-18T10:26:34.443Z,17.50
2019-02-18T10:29:09.488Z,17.30
2019-02-18T10:31:43.320Z,17.20
2019-02-18T10:34:13.969Z,17.80
2019-02-18T10:36:46.777Z,18.20
2019-02-18T10:39:17.605Z,18.30
2019-02-18T10:41:51.003Z,18.50
2019-02-18T10:44:23.382Z,18.90
2019-02-18T10:46:58.478Z,18.70
2019-02-18T10:49:30.469Z,18.30
2019-02-18T10:52:03.295Z,18.00
2019-02-18T10:54:37.666Z,17.20
2019-02-18T10:57:08.543Z,16.90
2019-02-18T10:59:41.728Z,16.30
2019-02-18T11:02:14.680Z,16.30
2019-02-18T11:04:46.572Z,16.90
2019-02-18T11:07:17.414Z,17.20
2019-02-18T11:09:47.821Z,17.40
2019-02-18T11:12:19.587Z,17.80
2019-02-18T11:14:51.775Z,17.60
2019-02-18T11:17:22.334Z,17.90
2019-02-18T11:19:54.157Z,18.00
2019-02-18T11:22:27.000Z,18.90
2019-02-18T11:24:58.839Z,19.10
2019-02-18T11:27:29.329Z,18.90
2019-02-18T11:29:59.897Z,18.20
2019-02-18T11:32:31.737Z,17.80
2019-02-18T11:35:04.436Z,17.10
2019-02-18T11:37:36.608Z,17.50
2019-02-18T11:40:08.152Z,18.20
2019-02-18T11:42:41.783Z,18.60
2019-02-18T11:45:16.329Z,19.20
2019-02-18T11:47:46.745Z,19.30
2019-02-18T11:50:17.413Z,19.20
2019-02-18T11:52:48.411Z,19.70
2019-02-18T11:55:19.188Z,19.20
2019-02-18T12:00:27.977Z,19.00
2019-02-18T12:03:03.609Z,16.70
2019-02-18T12:05:34.105Z,16.40
2019-02-18T12:08:08.552Z,15.90
2019-02-18T12:10:40.575Z,15.40
2019-02-18T12:13:15.583Z,14.40
2019-02-18T12:15:46.571Z,14.90
2019-02-18T12:18:17.321Z,15.30
2019-02-18T12:20:47.969Z,15.40
2019-02-18T12:23:20.610Z,15.60
2019-02-18T12:25:51.021Z,14.90
2019-02-18T12:28:22.586Z,14.70
2019-02-18T12:30:53.377Z,14.40
2019-02-18T12:33:26.529Z,14.10
2019-02-18T12:35:59.494Z,13.90
2019-02-18T12:38:31.159Z,14.00
2019-02-18T12:41:03.046Z,13.70
2019-02-18T12:43:35.116Z,13.80
2019-02-18T12:46:15.579Z,13.60
2019-02-18T12:48:39.786Z,13.40
2019-02-18T12:51:11.740Z,13.40
2019-02-18T12:53:46.155Z,13.10
2019-02-18T12:56:17.895Z,14.00
2019-02-18T12:58:54.652Z,15.80
2019-02-18T13:01:22.325Z,18.10
2019-02-18T13:03:55.025Z,20.30
2019-02-18T13:06:25.779Z,21.60
2019-02-18T13:08:59.661Z,22.40
2019-02-18T13:11:30.235Z,23.40
2019-02-18T13:14:03.918Z,23.00
2019-02-18T13:16:36.468Z,21.70
2019-02-18T13:19:07.990Z,20.00
2019-02-18T13:21:40.384Z,19.70
2019-02-18T13:24:12.446Z,19.30
2019-02-18T13:26:44.933Z,18.80
2019-02-18T13:29:16.844Z,18.10
2019-02-18T13:31:47.240Z,17.20
2019-02-18T13:34:20.008Z,16.60
2019-02-18T13:36:52.926Z,16.30
2019-02-18T13:39:23.949Z,15.70
2019-02-18T13:41:55.793Z,15.20
2019-02-18T13:44:27.902Z,15.10
2019-02-18T13:46:59.275Z,15.20
2019-02-18T13:49:29.812Z,15.10
2019-02-18T13:52:03.674Z,15.40
2019-02-18T13:54:35.089Z,15.20
2019-02-18T13:57:09.955Z,15.50
2019-02-18T13:59:41.472Z,15.20
2019-02-18T14:02:14.791Z,15.40
2019-02-18T14:04:46.414Z,15.30
2019-02-18T14:07:18.685Z,15.40
2019-02-18T14:09:50.908Z,15.20
2019-02-18T14:12:21.717Z,15.20
2019-02-18T14:14:54.066Z,15.00
2019-02-18T14:17:24.889Z,15.40
2019-02-18T14:19:57.093Z,15.30
2019-02-18T14:22:28.529Z,15.00
2019-02-18T14:25:03.016Z,15.20
2019-02-18T14:27:35.491Z,14.80
2019-02-18T14:30:07.203Z,14.50
2019-02-18T14:32:37.983Z,14.60
2019-02-18T14:35:10.084Z,14.70
2019-02-18T14:37:40.680Z,14.70
2019-02-18T14:40:16.419Z,14.50
2019-02-18T14:42:48.434Z,14.20
2019-02-18T14:45:19.629Z,13.90
2019-02-18T14:47:50.918Z,14.30
2019-02-18T14:50:21.692Z,13.90
2019-02-18T14:52:53.742Z,13.80
2019-02-18T14:55:24.477Z,14.10
2019-02-18T14:57:57.059Z,13.90
2019-02-18T15:00:30.223Z,13.90
2019-02-18T15:03:03.792Z,13.90
2019-02-18T15:05:34.173Z,13.70
2019-02-18T15:08:05.111Z,13.90
2019-02-18T15:10:36.852Z,13.70
2019-02-18T15:13:08.135Z,13.80
2019-02-18T15:15:39.639Z,13.40
2019-02-18T15:18:10.733Z,13.50
2019-02-18T15:20:42.921Z,13.40
2019-02-18T15:23:15.379Z,13.60
2019-02-18T15:25:49.083Z,13.30
2019-02-18T15:28:20.676Z,13.30
2019-02-18T15:30:54.539Z,13.30
2019-02-18T15:33:26.070Z,13.00
2019-02-18T15:35:56.545Z,12.90
2019-02-18T15:38:27.780Z,13.10
2019-02-18T15:41:03.698Z,12.80
2019-02-18T15:43:34.090Z,12.90
2019-02-18T15:46:05.585Z,12.70
2019-02-18T15:48:37.437Z,12.70
2019-02-18T15:51:08.607Z,12.70
2019-02-18T15:53:41.425Z,12.70
2019-02-18T15:56:14.496Z,12.60
2019-02-18T15:58:45.138Z,12.60
2019-02-18T16:01:15.861Z,12.70
2019-02-18T16:03:48.110Z,12.40
2019-02-18T16:06:18.750Z,12.70
2019-02-18T16:08:50.329Z,12.90
2019-02-18T16:11:24.017Z,12.70
2019-02-18T16:13:57.016Z,12.40
2019-02-18T16:16:28.965Z,12.40
2019-02-18T16:18:59.912Z,12.20
2019-02-18T16:21:31.835Z,12.10
2019-02-18T16:24:03.320Z,11.90
2019-02-18T16:26:36.440Z,12.20
2019-02-18T16:29:07.245Z,11.70
2019-02-18T16:31:38.901Z,11.90
2019-02-18T16:34:11.104Z,11.60
2019-02-18T16:36:41.587Z,11.40
2019-02-18T16:39:13.395Z,11.50
2019-02-18T16:41:45.762Z,11.10
2019-02-18T16:44:17.183Z,11.10
2019-02-18T16:46:49.151Z,11.10
2019-02-18T16:49:19.753Z,11.20
2019-02-18T16:51:50.449Z,11.20
2019-02-18T16:54:22.503Z,10.90
2019-02-18T16:56:53.214Z,11.00
2019-02-18T16:59:25.699Z,10.30
2019-02-18T17:01:57.890Z,10.40
2019-02-18T17:04:30.676Z,10.60
2019-02-18T17:07:03.892Z,10.50
2019-02-18T17:09:35.829Z,10.30
2019-02-18T17:12:07.782Z,10.30
2019-02-18T17:14:39.533Z,10.30
2019-02-18T17:17:11.200Z,10.30
2019-02-18T17:19:44.074Z,10.30
2019-02-18T17:22:16.640Z,10.40
2019-02-18T17:24:48.165Z,10.00
2019-02-18T17:27:20.035Z,9.90
2019-02-18T17:29:51.835Z,9.70
2019-02-18T17:32:22.793Z,9.60
2019-02-18T17:34:54.963Z,9.60
2019-02-18T17:37:27.492Z,9.20
2019-02-18T17:40:00.970Z,9.20
2019-02-18T17:42:31.432Z,9.40
2019-02-18T17:45:02.248Z,9.40
2019-02-18T17:47:36.819Z,9.20
2019-02-18T17:50:08.811Z,8.80
2019-02-18T17:52:39.683Z,8.90
2019-02-18T17:55:11.930Z,8.60
2019-02-18T17:57:42.656Z,8.70
2019-02-18T18:00:17.661Z,8.60
2019-02-18T18:02:49.318Z,8.70
2019-02-18T18:05:19.995Z,8.50
2019-02-18T18:07:54.721Z,8.40
2019-02-18T18:10:25.076Z,8.50
2019-02-18T18:12:56.825Z,8.40
2019-02-18T18:15:28.416Z,8.50
2019-02-18T18:18:00.168Z,8.20
2019-02-18T18:20:32.363Z,8.30
2019-02-18T18:23:03.044Z,8.10
2019-02-18T18:25:35.318Z,8.20
2019-02-18T18:28:05.695Z,8.30
2019-02-18T18:30:38.845Z,8.20
2019-02-18T18:33:10.062Z,8.20
2019-02-18T18:35:41.687Z,8.00
2019-02-18T18:38:13.900Z,7.90
2019-02-18T18:40:46.789Z,8.00
2019-02-18T18:43:19.985Z,8.20
2019-02-18T18:45:54.048Z,7.80
2019-02-18T18:48:24.829Z,7.80
2019-02-18T18:50:56.827Z,7.80
2019-02-18T18:53:29.293Z,7.80
2019-02-18T18:56:00.256Z,7.40
2019-02-18T18:58:33.020Z,7.50
2019-02-18T19:01:07.312Z,7.20
2019-02-18T19:03:39.840Z,7.10
2019-02-18T19:06:11.524Z,7.30
2019-02-18T19:08:42.404Z,7.20
2019-02-18T19:11:14.058Z,7.20
2019-02-18T19:13:44.508Z,7.10
2019-02-18T19:16:16.417Z,7.20
2019-02-18T19:18:49.461Z,7.10
2019-02-18T19:21:20.690Z,7.10
2019-02-18T19:23:51.728Z,7.00
2019-02-18T19:26:23.328Z,7.10
2019-02-18T19:28:53.764Z,6.70
2019-02-18T19:31:24.603Z,6.70
2019-02-18T19:33:57.593Z,6.50
2019-02-18T19:36:29.823Z,6.60
2019-02-18T19:39:00.300Z,6.50
2019-02-18T19:41:32.175Z,6.20
2019-02-18T19:44:05.185Z,6.60
2019-02-18T19:46:38.893Z,6.40
2019-02-18T19:49:12.443Z,6.20
2019-02-18T19:51:46.068Z,6.40
2019-02-18T19:54:19.197Z,6.20
2019-02-18T19:56:50.513Z,6.20
2019-02-18T19:59:21.268Z,6.10
2019-02-18T20:01:53.155Z,6.20
2019-02-18T20:04:25.183Z,5.80
2019-02-18T20:06:58.487Z,5.80
2019-02-18T20:09:31.771Z,6.00
2019-02-18T20:12:03.727Z,6.00
2019-02-18T20:14:34.511Z,5.80
2019-02-18T20:17:05.241Z,5.90
2019-02-18T20:19:35.831Z,5.80
2019-02-18T20:22:07.696Z,5.80
2019-02-18T20:24:39.862Z,5.50
2019-02-18T20:27:11.728Z,5.60
2019-02-18T20:29:44.621Z,5.60
2019-02-18T20:32:16.360Z,5.60
2019-02-18T20:34:49.307Z,5.60
2019-02-18T20:37:21.351Z,5.60
2019-02-18T20:39:52.267Z,5.50
2019-02-18T20:42:22.772Z,5.60
2019-02-18T20:44:55.170Z,5.60
2019-02-18T20:47:25.960Z,5.60
2019-02-18T20:49:58.889Z,5.70
2019-02-18T20:52:31.782Z,5.40
2019-02-18T20:55:03.577Z,5.40
2019-02-18T20:57:37.000Z,5.30
2019-02-18T21:00:12.526Z,5.70
2019-02-18T21:02:46.702Z,5.20
2019-02-18T21:05:19.010Z,5.40
2019-02-18T21:07:49.408Z,5.20
2019-02-18T21:10:20.064Z,5.40
2019-02-18T21:12:51.778Z,5.30
2019-02-18T21:15:23.235Z,5.10
2019-02-18T21:17:56.742Z,4.90
2019-02-18T21:20:30.038Z,5.10
2019-02-18T21:23:00.541Z,5.30
2019-02-18T21:25:32.409Z,5.00
2019-02-18T21:28:04.402Z,4.90
2019-02-18T21:30:35.208Z,5.00
2019-02-18T21:33:07.110Z,5.10
2019-02-18T21:35:39.345Z,4.70
2019-02-18T21:38:14.070Z,4.70
2019-02-18T21:40:44.645Z,4.50
2019-02-18T21:43:16.716Z,4.70
2019-02-18T21:45:47.922Z,4.50
2019-02-18T21:48:19.459Z,4.20
2019-02-18T21:50:51.316Z,4.50
2019-02-18T21:53:23.637Z,4.20
2019-02-18T21:55:57.864Z,4.20
2019-02-18T21:58:31.930Z,4.10
2019-02-18T22:01:04.571Z,4.20
2019-02-18T22:03:37.370Z,4.20
2019-02-18T22:06:09.282Z,4.20
2019-02-18T22:08:41.826Z,4.30
2019-02-18T22:11:14.911Z,4.60
2019-02-18T22:13:49.266Z,4.40
2019-02-18T22:16:20.236Z,4.30
2019-02-18T22:18:51.244Z,4.50
2019-02-18T22:21:26.580Z,4.20
2019-02-18T22:23:58.852Z,4.50
2019-02-18T22:26:29.753Z,4.20
2019-02-18T22:29:00.225Z,4.30
2019-02-18T22:31:32.089Z,4.10
2019-02-18T22:34:03.975Z,4.30
2019-02-18T22:36:36.863Z,4.30
2019-02-18T22:39:08.988Z,4.20
2019-02-18T22:41:40.136Z,4.20
2019-02-18T22:44:12.112Z,4.20
2019-02-18T22:46:43.038Z,4.20
2019-02-18T22:49:18.083Z,4.30
2019-02-18T22:51:48.546Z,4.50
2019-02-18T22:54:21.546Z,4.20
2019-02-18T22:56:56.162Z,4.20
2019-02-18T22:59:31.647Z,4.10
2019-02-18T23:02:03.306Z,4.20
2019-02-18T23:04:35.489Z,4.00
2019-02-18T23:07:08.010Z,3.60
2019-02-18T23:09:40.299Z,3.70
2019-02-18T23:12:15.356Z,3.50
2019-02-18T23:14:50.524Z,3.70
2019-02-18T23:17:22.585Z,3.70
2019-02-18T23:19:54.213Z,3.70
2019-02-18T23:22:27.382Z,3.70
2019-02-18T23:25:01.029Z,3.80
2019-02-18T23:27:36.061Z,3.80
2019-02-18T23:30:08.740Z,3.80
2019-02-18T23:32:39.249Z,4.00
2019-02-18T23:35:13.113Z,3.70
2019-02-18T23:37:43.823Z,4.10
2019-02-18T23:40:14.952Z,3.60
2019-02-18T23:42:48.773Z,3.70
2019-02-18T23:45:21.024Z,3.90
2019-02-18T23:47:51.454Z,3.60
2019-02-18T23:50:22.194Z,3.80
2019-02-18T23:52:52.647Z,3.80
2019-02-18T23:55:24.472Z,3.70
2019-02-18T23:57:56.346Z,3.60
